Pagrindinis puslapis
METAR-TAF:

METAR-TAF

Oro uostai :

Ivano Frankivskas, Ukraina

platuma: 48-53-03N, ilguma: 024-41-10E, Aukštis: 280 m

Dabartinis oras

Ataskaita buvo paskelbta 19 minutes, ne 07:30 UTC
Vėjas 12 kt iš Šiaurės Vakarų, svyruoja nuo Vakarų ir Šiaurės
Temperatūra 3°C
Drėgmė 70%
Slėgis 1001 hPa
Matomumas 10 km arba daugiau
Apsiniaukę ne aukštis 3000 ft

METAR: UKLI 270730Z 31006MPS 260V350 9999 OVC030 03/M02 Q1001 R28/190068 NOSIG

Laikas: 09:49 (07:49 UTC)

Prognozė

Ataskaita buvo paskelbta 2 valandos ir 48 minutes, ne 05:01 UTC
Prognozė galioja nuo 27 metu 06 UTC su 27 metu 15 UTC
Vėjas 10 kt iš Vakarų
Matomumas 10 km arba daugiau
Su prošvaistėmis ne aukštis 3000 ft
Laikinai
nuo 27 metu 06 UTC su 27 metu 15 UTC
Vėjas 14 kt iš Vakarų/Šiaurės Vakarų su gūsio iki 23 kt
Matomumas: 2100 m
Su prošvaistėmis ne aukštis 700 ft
Su prošvaistėmis ne aukštis 1000 ft, Liūtiniai kamuoliniai debesys.
lietus

TAF: UKLI 270501Z 2706/2715 28005MPS 9999 BKN030 TX06/2712Z TN03/2706Z TEMPO 2706/2715 30007G12MPS 2100 -SHRA BKN007 BKN010CB

Orai ataskaitas ir orų prognozės (METAR, TAF).

turimą stotys yra geltonos ir raudonos taškus žemėlapyje.

Perkelti pele per norėdami pamatyti stoties vardą.

Tada spustelėkite, norėdami matyti oro stebėjimo ir prognozės.

Norėdami pakeisti žemėlapį: spustelėkite ant žalios mygtukų su juodo kryžiaus žemyn,; žalią mygtuką su brūkšneliu, jei norite nutolinti; arba žalių rodyklių gretimoms žemėlapius.


METAR-TAF: